Flight Track Log - Related Links

Times and Time Zones

All times are in EDT time to prevent confusion due to time zone crossing. See the BVN8515 flight status page for this flight to view local times or setup timezone preferences in your user account.

Time Position Orientation Groundspeed Altitude Reporting Facility
EDT Latitude Longitude Course Direction KTS MPH feet Rate Location/Type
Fri 02:28:29 AM 35.0667 -89.9500 90° East 127 146 700  Level KMEM
Fri 02:29:29 AM 35.0667 -89.9167 90° East 127 146 1,700 1,050 Climbing KMEM
Fri 02:30:29 AM 35.0500 -89.8667 112° Southeast 121 139 2,800 1,000 Climbing KMEM
Fri 02:31:29 AM 35.0500 -89.8333 90° East 116 133 3,700 950 Climbing KMEM
Fri 02:32:29 AM 35.0333 -89.8000 121° Southeast 122 140 4,700 950 Climbing KMEM
Fri 02:33:29 AM 35.0333 -89.7500 90° East 123 142 5,600 900 Climbing KMEM
Fri 02:34:29 AM 35.0167 -89.7167 121° Southeast 129 148 6,500 900 Climbing KMEM
Fri 02:35:29 AM 35.0000 -89.6667 112° Southeast 132 152 7,400 900 Climbing KMEM
Fri 02:36:29 AM 35.0000 -89.6333 90° East 130 150 8,300 850 Climbing KMEM
Fri 02:37:29 AM 34.9833 -89.5833 112° Southeast 129 148 9,100 400 Climbing KMEM
Fri 02:38:29 AM 34.9833 -89.5333 90° East 162 186 9,100  Level KMEM
Fri 02:39:29 AM 34.9667 -89.4833 112° Southeast 175 201 9,100  Level KMEM
Fri 02:40:29 AM 34.9500 -89.4333 112° Southeast 166 191 9,100  Level KMEM
Fri 02:41:50 AM 34.9344 -89.3539 103° East 176 203 9,100  Level Memphis Center
Fri 02:42:50 AM 34.9214 -89.3008 107° East 176 203 9,100  Level Memphis Center
Fri 02:43:50 AM 34.9086 -89.2506 107° East 170 196 9,100  Level Memphis Center
Fri 02:44:50 AM 34.8956 -89.1975 107° East 161 185 9,100  Level Memphis Center
Fri 02:45:50 AM 34.8844 -89.1444 104° East 161 185 9,100  Level Memphis Center
Fri 02:46:50 AM 34.8714 -89.0889 106° East 166 191 9,100  Level Memphis Center
Fri 02:47:50 AM 34.8564 -89.0361 109° East 166 191 9,100  Level Memphis Center
Fri 02:48:50 AM 34.8453 -88.9831 104° East 166 191 9,100  Level Memphis Center
Fri 02:49:50 AM 34.8300 -88.9278 109° East 166 191 9,100  Level Memphis Center
Fri 02:50:50 AM 34.8211 -88.8797 103° East 166 191 9,100  Level Memphis Center
Fri 02:51:50 AM 34.8081 -88.8269 107° East 166 191 9,100  Level Memphis Center
Fri 02:52:50 AM 34.7947 -88.7739 107° East 166 191 9,100  Level Memphis Center
Fri 02:53:50 AM 34.7817 -88.7211 107° East 166 191 9,100  Level Memphis Center
Fri 02:54:50 AM 34.7661 -88.6658 109° East 166 191 9,100  Level Memphis Center
Fri 02:55:50 AM 34.7531 -88.6131 107° East 166 191 9,100  Level Memphis Center
Fri 02:56:50 AM 34.7419 -88.5628 105° East 166 191 9,100  Level Memphis Center
Fri 02:57:50 AM 34.7264 -88.5050 108° East 166 191 9,100  Level Memphis Center
Fri 02:58:50 AM 34.7133 -88.4597 109° East 161 185 9,100 -25 Level Memphis Center
Fri 03:00:00 AM 34.6993 -88.3960 105° East  Level FlightAware Approximate
Fri 03:01:50 AM 34.6753 -88.3014 107° East 162 186 9,000  Level Memphis Center
Fri 03:02:50 AM 34.6639 -88.2461 104° East 162 186 9,000  Level Memphis Center
Fri 03:03:50 AM 34.6506 -88.1936 107° East 162 186 9,000  Level Memphis Center
Fri 03:04:50 AM 34.6369 -88.1408 107° East 162 186 9,000  Level Memphis Center
Fri 03:05:50 AM 34.6214 -88.0858 109° East 162 186 9,000  Level Memphis Center
Fri 03:06:50 AM 34.6100 -88.0331 105° East 162 186 9,000  Level Memphis Center
Fri 03:07:00 AM 34.6114 -88.0148 107° East  Level FlightAware Approximate
Fri 03:07:50 AM 34.5944 -87.9806 110° East 167 192 9,000  Level Memphis Center
Fri 03:08:50 AM 34.5808 -87.9253 107° East 167 192 9,000  Level Memphis Center
Fri 03:09:50 AM 34.5692 -87.8728 105° East 162 186 9,000  Level Memphis Center
Fri 03:10:50 AM 34.5558 -87.8203 107° East 162 186 9,000  Level Memphis Center
Fri 03:11:50 AM 34.5422 -87.7678 107° East 162 186 9,000  Level Memphis Center
Fri 03:12:50 AM 34.5283 -87.7125 107° East 162 186 9,000  Level Memphis Center
Fri 03:13:50 AM 34.5147 -87.6575 107° East 162 186 9,000  Level Memphis Center
Fri 03:14:50 AM 34.5011 -87.6050 107° East 162 186 9,000  Level Memphis Center
Fri 03:15:50 AM 34.4894 -87.5525 105° East 162 186 9,000  Level Memphis Center
Fri 03:16:50 AM 34.4756 -87.4975 107° East 162 186 9,000  Level Memphis Center
Fri 03:17:50 AM 34.4597 -87.4378 108° East 162 186 9,000  Level Memphis Center
Fri 03:18:50 AM 34.4458 -87.3828 107° East 162 186 9,000  Level Memphis Center
Fri 03:19:50 AM 34.4319 -87.3303 108° East 162 186 9,000  Level Memphis Center
Fri 03:20:50 AM 34.4183 -87.2756 107° East 162 186 9,000  Level Memphis Center
Fri 03:21:50 AM 34.4042 -87.2206 107° East 162 186 9,000  Level Memphis Center
Fri 03:22:50 AM 34.3883 -87.1683 110° East 162 186 9,000  Level Memphis Center
Fri 03:23:50 AM 34.3744 -87.1136 107° East 162 186 9,000  Level Memphis Center
Fri 03:24:50 AM 34.3583 -87.0614 110° East 162 186 9,000  Level Memphis Center
Fri 03:25:50 AM 34.3444 -87.0089 108° East 162 186 9,000  Level Memphis Center
Fri 03:26:50 AM 34.3306 -86.9567 108° East 162 186 9,000  Level Memphis Center
Fri 03:28:45 AM 34.3047 -86.8578 108° East 170 196 9,000  Level Atlanta Center
Fri 03:29:45 AM 34.2911 -86.8044 107° East 170 196 9,000  Level Atlanta Center
Fri 03:30:45 AM 34.2778 -86.7514 107° East 170 196 9,000  Level Atlanta Center
Fri 03:31:45 AM 34.2622 -86.6981 109° East 170 196 9,000  Level Atlanta Center
Fri 03:32:45 AM 34.2489 -86.6447 107° East 170 196 9,000  Level Atlanta Center
Fri 03:33:45 AM 34.2353 -86.5892 106° East 170 196 9,000  Level Atlanta Center
Fri 03:34:45 AM 34.2197 -86.5333 109° East 170 196 9,000  Level Atlanta Center
Fri 03:35:45 AM 34.2042 -86.4803 110° East 170 196 9,000  Level Atlanta Center
Fri 03:36:45 AM 34.1928 -86.4244 104° East 170 196 9,000  Level Atlanta Center
Fri 03:37:45 AM 34.1772 -86.3689 109° East 170 196 9,000  Level Atlanta Center
Fri 03:38:45 AM 34.1656 -86.3158 105° East 170 196 9,000  Level Atlanta Center
Fri 03:39:45 AM 34.1500 -86.2603 109° East 170 196 9,000  Level Atlanta Center
Fri 03:40:45 AM 34.1383 -86.2047 104° East 170 196 9,000  Level Atlanta Center
Fri 03:41:45 AM 34.1206 -86.1517 112° Southeast 170 196 9,000  Level Atlanta Center
Fri 03:42:45 AM 34.1069 -86.0986 107° East 170 196 9,000  Level Atlanta Center
Fri 03:43:45 AM 34.0911 -86.0431 109° East 170 196 9,000  Level Atlanta Center
Fri 03:44:45 AM 34.0772 -85.9875 107° East 170 196 9,000  Level Atlanta Center
Fri 03:45:45 AM 34.0572 -85.9369 116° Southeast 170 196 9,000  Level Atlanta Center
Fri 03:46:45 AM 34.0456 -85.8814 104° East 170 196 9,000  Level Atlanta Center
Fri 03:47:45 AM 34.0339 -85.8286 105° East 170 196 9,000 50 Level Atlanta Center
Fri 03:48:45 AM 34.0181 -85.7706 108° East 164 189 9,100 50 Climbing Atlanta Center
Fri 03:49:45 AM 34.0042 -85.7178 108° East 164 189 9,100  Level Atlanta Center
Fri 03:50:45 AM 33.9881 -85.6647 110° East 169 194 9,100  Level Atlanta Center
Fri 03:51:45 AM 33.9764 -85.6094 104° East 174 200 9,100  Level Atlanta Center
Fri 03:52:45 AM 33.9581 -85.5564 113° Southeast 169 194 9,100  Level Atlanta Center
Fri 03:53:45 AM 33.9442 -85.5011 107° East 169 194 9,100  Level Atlanta Center
Fri 03:54:45 AM 33.9303 -85.4558 110° East 169 194 9,100  Level Atlanta Center
Fri 03:55:45 AM 33.9161 -85.4006 107° East 169 194 9,100  Level Atlanta Center
Fri 03:56:45 AM 33.9022 -85.3478 108° East 169 194 9,100  Level Atlanta Center
Fri 03:57:45 AM 33.8881 -85.2950 108° East 169 194 9,100  Level Atlanta Center
Fri 03:58:45 AM 33.8719 -85.2397 109° East 169 194 9,100  Level Atlanta Center
Fri 03:59:45 AM 33.8536 -85.1869 113° Southeast 169 194 9,100 -50 Level Atlanta Center
Fri 04:00:45 AM 33.8375 -85.1317 109° East 169 194 9,000 -50 Descending Atlanta Center
Fri 04:01:45 AM 33.8211 -85.0714 108° East 174 200 9,000  Level Atlanta Center
Fri 04:02:45 AM 33.8050 -85.0164 109° East 174 200 9,000 -200 Level Atlanta Center
Fri 04:03:45 AM 33.7931 -84.9586 104° East 174 200 8,600 -543 Descending Atlanta Center
Fri 04:05:53 AM 33.7667 -84.8333 104° East 186 214 7,300 -638 Descending Atlanta TRACON
Fri 04:06:53 AM 33.7667 -84.7667 90° East 190 219 6,600 -650 Descending Atlanta TRACON
Fri 04:07:53 AM 33.7667 -84.7000 90° East 196 226 6,000 -632 Descending Atlanta TRACON
Fri 04:08:47 AM 33.7500 -84.6500 112° Southeast 189 217 5,400 -526 Descending Atlanta TRACON
Fri 04:09:47 AM 33.7500 -84.5833 90° East 186 214 5,000 -400 Descending Atlanta TRACON
Fri 04:10:47 AM 33.7500 -84.5167 90° East 184 212 4,600 -500 Descending Atlanta TRACON
Fri 04:11:47 AM 33.7500 -84.4667 90° East 187 215 4,000 -650 Descending Atlanta TRACON
Fri 04:12:47 AM 33.7333 -84.4000 107° East 194 223 3,300 -550 Descending Atlanta TRACON
Fri 04:13:47 AM 33.7000 -84.3667 140° Southeast 184 212 2,900 -700 Descending Atlanta TRACON
Fri 04:14:47 AM 33.6500 -84.3667 180° South 191 220 1,900 -1,000 Descending Atlanta TRACON
Fri 04:16:00 AM 33.6333 -84.4167 90° East  Level FlightAware Approximate
Fri 04:23:00 AM 33.6367 -84.4279 90° East  Level Estimated
Fri 04:24:00 AM 33.6367 -84.4279 90° East  Level Estimated
Fri 04:25:00 AM 33.6367 -84.4279 90° East  Level Estimated

Login

Don't have an account? Register now (free) for customized features, flight alerts, and more!